sensor_id;sensor_type;location;lat;lon;timestamp;P1;durP1;ratioP1;P2;durP2;ratioP2
37063;SDS011;23211;53.912;9.138;2022-12-29T19:46:06;4.05;;;1.20;;
37063;SDS011;23211;53.912;9.138;2022-12-29T19:48:53;4.22;;;1.05;;
37063;SDS011;23211;53.912;9.138;2022-12-29T19:51:43;4.55;;;0.95;;
37063;SDS011;23211;53.912;9.138;2022-12-29T19:54:28;2.30;;;0.70;;
37063;SDS011;23211;53.912;9.138;2022-12-29T19:57:14;2.83;;;0.90;;
37063;SDS011;23211;53.912;9.138;2022-12-29T20:00:00;2.58;;;0.85;;
37063;SDS011;23211;53.912;9.138;2022-12-29T20:02:46;5.35;;;1.10;;
37063;SDS011;23211;53.912;9.138;2022-12-29T20:05:32;1.65;;;0.90;;
37063;SDS011;23211;53.912;9.138;2022-12-29T20:08:18;3.90;;;0.98;;
37063;SDS011;23211;53.912;9.138;2022-12-29T20:11:05;7.57;;;1.45;;
37063;SDS011;23211;53.912;9.138;2022-12-29T20:13:52;2.92;;;1.10;;
37063;SDS011;23211;53.912;9.138;2022-12-29T20:16:39;4.13;;;1.02;;
37063;SDS011;23211;53.912;9.138;2022-12-29T20:19:24;3.25;;;1.48;;
37063;SDS011;23211;53.912;9.138;2022-12-29T20:22:10;5.05;;;1.80;;
37063;SDS011;23211;53.912;9.138;2022-12-29T20:24:56;9.82;;;2.10;;
37063;SDS011;23211;53.912;9.138;2022-12-29T20:27:42;5.50;;;1.70;;
37063;SDS011;23211;53.912;9.138;2022-12-29T20:30:28;10.38;;;2.22;;
37063;SDS011;23211;53.912;9.138;2022-12-29T20:33:14;9.70;;;2.20;;
37063;SDS011;23211;53.912;9.138;2022-12-29T20:36:11;10.80;;;2.65;;
37063;SDS011;23211;53.912;9.138;2022-12-29T20:39:04;9.25;;;2.38;;
37063;SDS011;23211;53.912;9.138;2022-12-29T20:41:52;6.53;;;2.25;;
37063;SDS011;23211;53.912;9.138;2022-12-29T20:44:37;12.52;;;2.70;;
37063;SDS011;23211;53.912;9.138;2022-12-29T20:47:23;17.85;;;2.85;;
37063;SDS011;23211;53.912;9.138;2022-12-29T20:50:10;18.20;;;2.17;;
37063;SDS011;23211;53.912;9.138;2022-12-29T20:52:56;14.52;;;2.47;;
37063;SDS011;23211;53.912;9.138;2022-12-29T20:55:42;14.95;;;2.08;;
37063;SDS011;23211;53.912;9.138;2022-12-29T20:58:28;11.35;;;2.15;;
37063;SDS011;23211;53.912;9.138;2022-12-29T21:01:16;14.68;;;2.25;;
37063;SDS011;23211;53.912;9.138;2022-12-29T21:04:03;13.23;;;2.22;;
37063;SDS011;23211;53.912;9.138;2022-12-29T21:06:50;17.58;;;2.72;;
37063;SDS011;23211;53.912;9.138;2022-12-29T21:09:35;12.73;;;2.67;;
37063;SDS011;23211;53.912;9.138;2022-12-29T21:12:22;13.60;;;2.22;;
37063;SDS011;23211;53.912;9.138;2022-12-29T21:15:08;16.60;;;2.55;;
37063;SDS011;23211;53.912;9.138;2022-12-29T21:17:54;18.00;;;2.92;;
37063;SDS011;23211;53.912;9.138;2022-12-29T21:20:40;21.30;;;3.13;;
37063;SDS011;23211;53.912;9.138;2022-12-29T21:23:26;13.95;;;2.55;;
37063;SDS011;23211;53.912;9.138;2022-12-29T21:26:14;14.40;;;2.55;;
37063;SDS011;23211;53.912;9.138;2022-12-29T21:29:02;10.32;;;2.25;;
37063;SDS011;23211;53.912;9.138;2022-12-29T21:31:48;15.88;;;2.38;;
37063;SDS011;23211;53.912;9.138;2022-12-29T21:34:34;13.40;;;2.88;;
37063;SDS011;23211;53.912;9.138;2022-12-29T21:37:20;14.52;;;2.55;;
37063;SDS011;23211;53.912;9.138;2022-12-29T21:40:05;10.52;;;2.55;;
37063;SDS011;23211;53.912;9.138;2022-12-29T21:42:52;12.85;;;3.03;;
37063;SDS011;23211;53.912;9.138;2022-12-29T21:45:37;16.95;;;4.05;;
37063;SDS011;23211;53.912;9.138;2022-12-29T21:48:23;12.98;;;2.75;;
37063;SDS011;23211;53.912;9.138;2022-12-29T21:51:10;19.45;;;2.83;;
37063;SDS011;23211;53.912;9.138;2022-12-29T22:00:36;16.40;;;3.40;;
37063;SDS011;23211;53.912;9.138;2022-12-29T22:03:40;16.40;;;2.35;;
37063;SDS011;23211;53.912;9.138;2022-12-29T22:06:45;15.35;;;2.38;;
37063;SDS011;23211;53.912;9.138;2022-12-29T22:09:49;15.70;;;2.65;;
37063;SDS011;23211;53.912;9.138;2022-12-29T22:12:54;19.00;;;3.03;;
37063;SDS011;23211;53.912;9.138;2022-12-29T22:15:46;12.13;;;2.10;;
37063;SDS011;23211;53.912;9.138;2022-12-29T22:18:32;15.65;;;3.97;;
37063;SDS011;23211;53.912;9.138;2022-12-29T22:21:18;12.43;;;3.22;;
37063;SDS011;23211;53.912;9.138;2022-12-29T22:24:04;13.45;;;2.50;;
37063;SDS011;23211;53.912;9.138;2022-12-29T22:26:50;13.25;;;2.50;;
37063;SDS011;23211;53.912;9.138;2022-12-29T22:29:36;12.50;;;2.47;;
37063;SDS011;23211;53.912;9.138;2022-12-29T22:32:22;18.23;;;2.97;;
37063;SDS011;23211;53.912;9.138;2022-12-29T22:35:08;27.27;;;3.15;;
37063;SDS011;23211;53.912;9.138;2022-12-29T22:37:55;16.00;;;3.45;;
37063;SDS011;23211;53.912;9.138;2022-12-29T22:40:41;18.27;;;3.75;;
37063;SDS011;23211;53.912;9.138;2022-12-29T22:43:27;22.17;;;3.78;;
37063;SDS011;23211;53.912;9.138;2022-12-29T22:46:14;21.30;;;3.15;;
37063;SDS011;23211;53.912;9.138;2022-12-29T22:49:00;16.00;;;3.25;;
37063;SDS011;23211;53.912;9.138;2022-12-29T22:51:45;17.92;;;4.03;;
37063;SDS011;23211;53.912;9.138;2022-12-29T22:54:31;18.67;;;3.88;;
37063;SDS011;23211;53.912;9.138;2022-12-29T22:57:17;15.93;;;3.55;;
37063;SDS011;23211;53.912;9.138;2022-12-29T23:00:04;17.83;;;3.08;;
37063;SDS011;23211;53.912;9.138;2022-12-29T23:02:52;22.85;;;3.63;;
37063;SDS011;23211;53.912;9.138;2022-12-29T23:05:38;18.25;;;3.17;;
37063;SDS011;23211;53.912;9.138;2022-12-29T23:08:24;16.77;;;3.22;;
37063;SDS011;23211;53.912;9.138;2022-12-29T23:11:11;19.02;;;3.45;;
37063;SDS011;23211;53.912;9.138;2022-12-29T23:13:57;22.70;;;3.72;;
37063;SDS011;23211;53.912;9.138;2022-12-29T23:16:43;16.98;;;3.60;;
37063;SDS011;23211;53.912;9.138;2022-12-29T23:19:30;21.38;;;4.60;;
37063;SDS011;23211;53.912;9.138;2022-12-29T23:22:16;20.55;;;3.28;;
37063;SDS011;23211;53.912;9.138;2022-12-29T23:25:01;17.17;;;3.33;;
37063;SDS011;23211;53.912;9.138;2022-12-29T23:27:47;16.75;;;3.67;;
37063;SDS011;23211;53.912;9.138;2022-12-29T23:30:33;29.73;;;4.55;;
37063;SDS011;23211;53.912;9.138;2022-12-29T23:33:19;21.42;;;3.80;;
37063;SDS011;23211;53.912;9.138;2022-12-29T23:36:06;15.90;;;4.18;;
37063;SDS011;23211;53.912;9.138;2022-12-29T23:38:53;29.92;;;5.43;;
37063;SDS011;23211;53.912;9.138;2022-12-29T23:41:40;20.50;;;4.25;;
37063;SDS011;23211;53.912;9.138;2022-12-29T23:44:25;21.75;;;3.72;;
37063;SDS011;23211;53.912;9.138;2022-12-29T23:47:11;16.10;;;3.35;;
37063;SDS011;23211;53.912;9.138;2022-12-29T23:49:58;15.73;;;3.58;;
37063;SDS011;23211;53.912;9.138;2022-12-29T23:52:43;21.73;;;3.53;;
37063;SDS011;23211;53.912;9.138;2022-12-29T23:55:29;19.80;;;4.40;;
37063;SDS011;23211;53.912;9.138;2022-12-29T23:58:15;21.80;;;4.25;;
